Dodge City Regional Airport Dodge City US
ICAO: KDDC
IATA: DDC
Category: Medium
Scheduled Services: Yes

Elevation: 2594 ft
TransAlt. 18000 ft.

Airport Communications:
ASOS:118.525
KANSAS CITY CNTR:125.2
WICHITA RDO:122.35
CTAF/UNICOM:122.7

KDDC Zoom In..

If you have problems with the map follow the link
https://www.worldairports.se/pages/airport.php?
ICAO=KDDC

Runways:

(A) RW 02 length 4649 ft width 100 ft
---- / hdg 24

(B) RW 14 length 6899 ft width 100 ft
ILS 111.70 / hdg 146

(C) RW 20 length 4649 ft width 100 ft
---- / hdg 204

(D) RW 32 length 6899 ft width 100 ft
---- / hdg 326

Location; KDDC
Day. 12 / Time. 07.52 Zulu
* Altimeter: 29.97
* Temperature: 06° c. 42.8°f.
* Wind from: 200° Speed 17 kn with Gusts up to 28 kn.
Dewpoint: 03° c.
Visibility: 8 Statute Miles.
Clouds: Clear (automated report).

KDDC 120752Z AUTO 20017G28KT 8SM CLR 06/03 A2997 RMK AO2 PK WND 20031/0654 SLP148 T00560028


Wind From 200°
Speed 17 kn.

 
 
jpsmedia worldairports.se 2019   terms of use